Terminal Aerodrome Forecast
Issued by NWS

Current Version | Previous Version | Text Only | Print | Product List | Glossary Off
Versions: 1 2 3 4 5 6 7 8 9 10 11 12 13 14 15 16 17 18 19 20

000
FTUS41 KRLX 271002 AAB
TAFCKB
TAF AMD
KCKB 271002Z 2710/2806 00000KT 4SM BR SCT001 SCT050
      TEMPO 2710/2712 1/4SM FG VV001
     FM271300 01005KT P6SM SCT050
     FM272300 00000KT P6SM SKC=

USA.gov is the U.S. government's official web portal to all federal, state and local government web resources and services.